Bei Facebook empfehlenBei Twitter postenGoogle plusPinterest

Das Wetter im Erzgebirge am 27.10.2015

Wetter und Klima am 27.10.2015 Holzhau im Erzgebirge (630m ü.NN)
Letzte gemessene Temperatur und Uhrzeit der Messung23:59:00 Uhr5.90 °C
Temperatur (Maximum / Höchstwert) und Uhrzeit der Messung14:44:00 Uhr10.10 °C
Temperatur (Minimum / Tiefstwert) und Uhrzeit der Messung03:14:004.90 °C
Errechneter Absolutwert der Temperaturschwankungen zwischen Tmin und Tmax des Tages5.20 K
Errechnete Tagesmitteltemperatur7.11198 °C
Gesamt - Niederschlag des Tages (in flüssiger Form)0.00 Liter / m²
Luftdruck (Maximum / Höchstwert) und Zeitpunkt der Messung00:30:00 Uhr1017.20 hPa
Luftdruck (Minimum / Tiefstwert) und Zeitpunkt der Messung23:59:00 Uhr1014.30 hPa
Errechneter Absolutwert der Luftdruckschwankungen des Tages2.90 hPa
Höchste gemessene Windgeschwindigkeit und Uhrzeit der Messung15:29:00 Uhr18.72 km/h
Errechnete Windhäufigkeit in Relation zu den Messwerten des Tages64.58333 %
Niedrigste Windkühle (Windchill) und Zeitpunkt der Messung02:44:00 Uhr2.40 °C
Taupunkt (Maximum / Höchstwert) und Uhrzeit der Messung13:29:00 Uhr8.00 °C
Taupunkt (Minimum / Tiefstwert) und Uhrzeit der Messung03:14:003.70 °C
Anzahl der automatisch eingelesenen Messwerte 192

Detaillierte Wetter- und Klima- Messwerte für den 27.10.2015 in Holzhau im Erzgebirge (630m ü.NN)
ZeitTemperaturLuftdruckRel. LuftfeuchteWindWindrichtungWindchillTaupunktNiederschlag l/m²
23:59:005.90 °C1014.30 hPa91.00 %4.50 °C 
23:45:006.10 °C1014.40 hPa90.00 %4.60 °C 
23:44:005.90 °C1014.30 hPa91.00 %4.50 °C 
23:30:006.10 °C1014.30 hPa90.00 %4.60 °C 
23:29:005.90 °C1014.40 hPa90.00 %4.40 °C 
23:15:006.10 °C1014.50 hPa90.00 %7.20 km/hSSO4.60 °C4.60 °C 
23:14:006.00 °C1014.30 hPa90.00 %5.04 km/hSO5.20 °C4.50 °C 
23:00:006.10 °C1014.40 hPa89.00 %4.40 °C 
22:59:005.90 °C1014.30 hPa90.00 %6.84 km/hOSO4.50 °C4.40 °C 
22:45:006.10 °C1014.70 hPa89.00 %6.12 km/hONO5.00 °C4.40 °C 
22:44:006.10 °C1014.40 hPa90.00 %4.60 °C 
22:30:006.30 °C1014.80 hPa89.00 %4.60 °C 
22:29:006.10 °C1014.30 hPa90.00 %4.60 °C 
22:15:006.30 °C1014.80 hPa89.00 %3.96 km/hOSO6.30 °C4.60 °C 
22:14:006.10 °C1014.50 hPa90.00 %7.20 km/hSSO4.60 °C4.60 °C 
22:00:006.40 °C1014.70 hPa89.00 %1.08 km/hO6.40 °C4.70 °C 
21:59:006.10 °C1014.40 hPa89.00 %4.40 °C 
21:45:006.60 °C1014.90 hPa89.00 %3.24 km/hOSO6.60 °C4.90 °C 
21:44:006.10 °C1014.70 hPa89.00 %6.12 km/hONO5.00 °C4.40 °C 
21:30:006.70 °C1014.90 hPa90.00 %3.60 km/hSSO6.70 °C5.20 °C 
21:29:006.30 °C1014.80 hPa89.00 %4.60 °C 
21:15:006.80 °C1015.10 hPa90.00 %1.80 km/hOSO6.80 °C5.30 °C 
21:14:006.30 °C1014.80 hPa89.00 %3.96 km/hOSO6.30 °C4.60 °C 
21:00:006.70 °C1015.10 hPa90.00 %5.20 °C 
20:59:006.40 °C1014.70 hPa89.00 %1.08 km/hO6.40 °C4.70 °C 
20:45:006.80 °C1015.10 hPa90.00 %1.80 km/hONO6.80 °C5.30 °C 
20:44:006.60 °C1014.90 hPa89.00 %3.24 km/hOSO6.60 °C4.90 °C 
20:30:007.00 °C1015.10 hPa90.00 %3.60 km/hONO7.00 °C5.50 °C 
20:29:006.70 °C1014.90 hPa90.00 %3.60 km/hSSO6.70 °C5.20 °C 
20:15:007.10 °C1015.20 hPa90.00 %8.28 km/hO5.50 °C5.60 °C 
20:14:006.80 °C1015.10 hPa90.00 %1.80 km/hOSO6.80 °C5.30 °C 
20:00:007.30 °C1015.10 hPa90.00 %7.20 km/hSO6.00 °C5.80 °C 
19:59:006.70 °C1015.10 hPa90.00 %5.20 °C 
19:45:007.40 °C1015.00 hPa90.00 %2.52 km/hO7.40 °C5.90 °C 
19:44:006.80 °C1015.10 hPa90.00 %1.80 km/hONO6.80 °C5.30 °C 
19:30:007.40 °C1014.90 hPa90.00 %5.90 °C 
19:29:007.00 °C1015.10 hPa90.00 %3.60 km/hONO7.00 °C5.50 °C 
19:15:007.40 °C1015.10 hPa89.00 %5.70 °C 
19:14:007.10 °C1015.20 hPa90.00 %8.28 km/hO5.50 °C5.60 °C 
19:00:007.40 °C1014.90 hPa89.00 %5.70 °C 
18:59:007.30 °C1015.10 hPa90.00 %7.20 km/hSO6.00 °C5.80 °C 
18:45:007.60 °C1015.00 hPa88.00 %11.88 km/hOSO5.40 °C5.70 °C 
18:44:007.40 °C1015.00 hPa90.00 %2.52 km/hO7.40 °C5.90 °C 
18:30:007.80 °C1015.10 hPa88.00 %6.12 km/hSO6.90 °C5.90 °C 
18:29:007.40 °C1014.90 hPa90.00 %5.90 °C 
18:15:007.90 °C1015.10 hPa88.00 %6.48 km/hSO6.90 °C6.00 °C 
18:14:007.40 °C1015.10 hPa89.00 %5.70 °C 
18:00:007.90 °C1015.10 hPa88.00 %6.00 °C 
17:59:007.40 °C1014.90 hPa89.00 %5.70 °C 
17:45:008.10 °C1015.10 hPa87.00 %6.10 °C 
17:44:007.60 °C1015.00 hPa88.00 %11.88 km/hOSO5.40 °C5.70 °C 
17:30:008.20 °C1015.10 hPa87.00 %10.44 km/hO6.40 °C6.20 °C 
17:29:007.80 °C1015.10 hPa88.00 %6.12 km/hSO6.90 °C5.90 °C 
17:15:008.40 °C1015.20 hPa86.00 %2.52 km/hOSO8.40 °C6.20 °C 
17:14:007.90 °C1015.10 hPa88.00 %6.48 km/hSO6.90 °C6.00 °C 
17:00:008.40 °C1015.10 hPa86.00 %2.88 km/hO8.40 °C6.20 °C 
16:59:007.90 °C1015.10 hPa88.00 %6.00 °C 
16:45:008.80 °C1015.20 hPa85.00 %6.40 °C 
16:44:008.10 °C1015.10 hPa87.00 %6.10 °C 
16:30:009.20 °C1015.00 hPa84.00 %18.72 km/hOSO6.50 °C6.60 °C 
16:29:008.20 °C1015.10 hPa87.00 %10.44 km/hO6.40 °C6.20 °C 
16:15:009.50 °C1015.20 hPa84.00 %16.56 km/hS7.10 °C6.90 °C 
16:14:008.40 °C1015.20 hPa86.00 %2.52 km/hOSO8.40 °C6.20 °C 
16:00:009.80 °C1015.20 hPa84.00 %5.40 km/hS9.40 °C7.20 °C 
15:59:008.40 °C1015.10 hPa86.00 %2.88 km/hO8.40 °C6.20 °C 
15:45:0010.10 °C1015.40 hPa85.00 %16.20 km/hSSO7.90 °C7.70 °C 
15:44:008.80 °C1015.20 hPa85.00 %6.40 °C 
15:30:009.90 °C1015.30 hPa85.00 %7.50 °C 
15:29:009.20 °C1015.00 hPa84.00 %18.72 km/hOSO6.50 °C6.60 °C 
15:15:0010.10 °C1015.30 hPa85.00 %6.12 km/hS9.60 °C7.70 °C 
15:14:009.50 °C1015.20 hPa84.00 %16.56 km/hS7.10 °C6.90 °C 
15:00:0010.10 °C1015.10 hPa86.00 %7.90 °C 
14:59:009.80 °C1015.20 hPa84.00 %5.40 km/hS9.40 °C7.20 °C 
14:45:009.90 °C1015.40 hPa87.00 %12.24 km/hSO8.20 °C7.80 °C 
14:44:0010.10 °C1015.40 hPa85.00 %16.20 km/hSSO7.90 °C7.70 °C 
14:30:009.90 °C1015.70 hPa88.00 %8.00 °C 
14:29:009.90 °C1015.30 hPa85.00 %7.50 °C 
14:15:009.60 °C1016.00 hPa87.00 %2.88 km/hOSO9.60 °C7.50 °C 
14:14:0010.10 °C1015.30 hPa85.00 %6.12 km/hS9.60 °C7.70 °C 
14:00:009.60 °C1015.90 hPa88.00 %6.84 km/hSO8.80 °C7.70 °C 
13:59:0010.10 °C1015.10 hPa86.00 %7.90 °C 
13:45:009.40 °C1016.00 hPa88.00 %7.50 °C 
13:44:009.90 °C1015.40 hPa87.00 %12.24 km/hSO8.20 °C7.80 °C 
13:30:009.10 °C1016.50 hPa89.00 %1.80 km/hOSO9.10 °C7.40 °C 
13:29:009.90 °C1015.70 hPa88.00 %8.00 °C 
13:15:008.90 °C1016.60 hPa89.00 %2.88 km/hO8.90 °C7.20 °C 
13:14:009.60 °C1016.00 hPa87.00 %2.88 km/hOSO9.60 °C7.50 °C 
13:00:009.00 °C1016.70 hPa89.00 %5.40 km/hSSW8.50 °C7.30 °C 
12:59:009.60 °C1015.90 hPa88.00 %6.84 km/hSO8.80 °C7.70 °C 
12:45:008.90 °C1016.80 hPa89.00 %7.20 °C 
12:44:009.40 °C1016.00 hPa88.00 %7.50 °C 
12:30:008.70 °C1016.90 hPa89.00 %13.68 km/hSSO6.50 °C7.00 °C 
12:29:009.10 °C1016.50 hPa89.00 %1.80 km/hOSO9.10 °C7.40 °C 
12:15:008.70 °C1016.90 hPa90.00 %6.48 km/hSW7.80 °C7.20 °C 
12:14:008.90 °C1016.60 hPa89.00 %2.88 km/hO8.90 °C7.20 °C 
12:00:008.70 °C1017.10 hPa90.00 %7.20 °C 
11:59:009.00 °C1016.70 hPa89.00 %5.40 km/hSSW8.50 °C7.30 °C 
11:45:008.60 °C1017.00 hPa91.00 %7.20 °C 
11:44:008.90 °C1016.80 hPa89.00 %7.20 °C 
11:30:008.40 °C1017.10 hPa91.00 %3.60 km/hSO8.40 °C7.00 °C 
11:29:008.70 °C1016.90 hPa89.00 %13.68 km/hSSO6.50 °C7.00 °C 
11:15:008.30 °C1017.10 hPa91.00 %6.90 °C 
11:14:008.70 °C1016.90 hPa90.00 %6.48 km/hSW7.80 °C7.20 °C 
11:00:008.10 °C1017.00 hPa91.00 %8.28 km/hSO6.70 °C6.70 °C 
10:59:008.70 °C1017.10 hPa90.00 %7.20 °C 
10:45:007.90 °C1016.80 hPa92.00 %2.88 km/hOSO7.90 °C6.70 °C 
10:44:008.60 °C1017.00 hPa91.00 %7.20 °C 
10:30:007.80 °C1016.80 hPa92.00 %4.32 km/hOSO7.80 °C6.60 °C 
10:29:008.40 °C1017.10 hPa91.00 %3.60 km/hSO8.40 °C7.00 °C 
10:15:007.60 °C1016.90 hPa93.00 %5.04 km/hO7.00 °C6.50 °C 
10:14:008.30 °C1017.10 hPa91.00 %6.90 °C 
10:00:007.40 °C1016.70 hPa92.00 %6.20 °C 
09:59:008.10 °C1017.00 hPa91.00 %8.28 km/hSO6.70 °C6.70 °C 
09:45:007.20 °C1016.80 hPa92.00 %10.44 km/hSSO5.20 °C6.00 °C 
09:44:007.90 °C1016.80 hPa92.00 %2.88 km/hOSO7.90 °C6.70 °C 
09:30:007.00 °C1016.90 hPa93.00 %5.90 °C 
09:29:007.80 °C1016.80 hPa92.00 %4.32 km/hOSO7.80 °C6.60 °C 
09:15:006.90 °C1016.90 hPa93.00 %7.56 km/hSO5.50 °C5.80 °C 
09:14:007.60 °C1016.90 hPa93.00 %5.04 km/hO7.00 °C6.50 °C 
09:00:006.80 °C1016.90 hPa93.00 %8.64 km/hOSO5.10 °C5.70 °C 
08:59:007.40 °C1016.70 hPa92.00 %6.20 °C 
08:45:006.40 °C1016.80 hPa93.00 %2.88 km/hSO6.40 °C5.40 °C 
08:44:007.20 °C1016.80 hPa92.00 %10.44 km/hSSO5.20 °C6.00 °C 
08:30:006.30 °C1016.80 hPa93.00 %2.52 km/hSO6.30 °C5.30 °C 
08:29:007.00 °C1016.90 hPa93.00 %5.90 °C 
08:15:006.30 °C1016.60 hPa93.00 %5.04 km/hNO5.50 °C5.30 °C 
08:14:006.90 °C1016.90 hPa93.00 %7.56 km/hSO5.50 °C5.80 °C 
08:00:006.30 °C1016.60 hPa93.00 %5.30 °C 
07:59:006.80 °C1016.90 hPa93.00 %8.64 km/hOSO5.10 °C5.70 °C 
07:45:006.20 °C1016.20 hPa93.00 %6.12 km/hSSO5.10 °C5.20 °C 
07:44:006.40 °C1016.80 hPa93.00 %2.88 km/hSO6.40 °C5.40 °C 
07:30:006.10 °C1016.10 hPa93.00 %11.52 km/hOSO3.70 °C5.10 °C 
07:29:006.30 °C1016.80 hPa93.00 %2.52 km/hSO6.30 °C5.30 °C 
07:15:005.90 °C1016.20 hPa93.00 %3.24 km/hSO5.90 °C4.90 °C 
07:14:006.30 °C1016.60 hPa93.00 %5.04 km/hNO5.50 °C5.30 °C 
07:00:005.90 °C1016.40 hPa93.00 %10.80 km/hO3.60 °C4.90 °C 
06:59:006.30 °C1016.60 hPa93.00 %5.30 °C 
06:45:006.10 °C1016.30 hPa93.00 %5.10 °C 
06:44:006.20 °C1016.20 hPa93.00 %6.12 km/hSSO5.10 °C5.20 °C 
06:30:006.10 °C1016.40 hPa93.00 %7.92 km/hSSO4.40 °C5.10 °C 
06:29:006.10 °C1016.10 hPa93.00 %11.52 km/hOSO3.70 °C5.10 °C 
06:15:006.10 °C1016.20 hPa93.00 %9.36 km/hOSO4.10 °C5.10 °C 
06:14:005.90 °C1016.20 hPa93.00 %3.24 km/hSO5.90 °C4.90 °C 
06:00:005.90 °C1016.50 hPa93.00 %4.90 °C 
05:59:005.90 °C1016.40 hPa93.00 %10.80 km/hO3.60 °C4.90 °C 
05:45:005.80 °C1016.40 hPa93.00 %14.04 km/hSO2.90 °C4.80 °C 
05:44:006.10 °C1016.30 hPa93.00 %5.10 °C 
05:30:005.60 °C1016.60 hPa93.00 %9.36 km/hSO3.50 °C4.60 °C 
05:29:006.10 °C1016.40 hPa93.00 %7.92 km/hSSO4.40 °C5.10 °C 
05:15:005.50 °C1016.50 hPa93.00 %4.50 °C 
05:14:006.10 °C1016.20 hPa93.00 %9.36 km/hOSO4.10 °C5.10 °C 
05:00:005.30 °C1016.60 hPa93.00 %4.30 °C 
04:59:005.90 °C1016.50 hPa93.00 %4.90 °C 
04:45:005.20 °C1016.50 hPa93.00 %4.20 °C 
04:44:005.80 °C1016.40 hPa93.00 %14.04 km/hSO2.90 °C4.80 °C 
04:30:005.10 °C1016.80 hPa92.00 %3.96 km/hNO5.10 °C3.90 °C 
04:29:005.60 °C1016.60 hPa93.00 %9.36 km/hSO3.50 °C4.60 °C 
04:15:004.90 °C1016.80 hPa92.00 %9.36 km/hSO2.70 °C3.70 °C 
04:14:005.50 °C1016.50 hPa93.00 %4.50 °C 
04:00:004.90 °C1016.80 hPa92.00 %3.70 °C 
03:59:005.30 °C1016.60 hPa93.00 %4.30 °C 
03:45:005.10 °C1016.90 hPa92.00 %11.88 km/hO2.40 °C3.90 °C 
03:44:005.20 °C1016.50 hPa93.00 %4.20 °C 
03:30:005.20 °C1016.70 hPa92.00 %7.56 km/hO3.50 °C4.00 °C 
03:29:005.10 °C1016.80 hPa92.00 %3.96 km/hNO5.10 °C3.90 °C 
03:15:005.30 °C1016.70 hPa92.00 %6.84 km/hOSO3.80 °C4.10 °C 
03:14:004.90 °C1016.80 hPa92.00 %9.36 km/hSO2.70 °C3.70 °C 
03:00:005.30 °C1016.80 hPa92.00 %9.36 km/hO3.20 °C4.10 °C 
02:59:004.90 °C1016.80 hPa92.00 %3.70 °C 
02:45:005.30 °C1016.80 hPa92.00 %6.48 km/hONO3.90 °C4.10 °C 
02:44:005.10 °C1016.90 hPa92.00 %11.88 km/hO2.40 °C3.90 °C 
02:30:005.40 °C1016.90 hPa92.00 %6.84 km/hOSO3.90 °C4.20 °C 
02:29:005.20 °C1016.70 hPa92.00 %7.56 km/hO3.50 °C4.00 °C 
02:15:005.50 °C1016.90 hPa92.00 %2.16 km/hOSO5.50 °C4.30 °C 
02:14:005.30 °C1016.70 hPa92.00 %6.84 km/hOSO3.80 °C4.10 °C 
02:00:005.50 °C1016.90 hPa92.00 %4.30 °C 
01:59:005.30 °C1016.80 hPa92.00 %9.36 km/hO3.20 °C4.10 °C 
01:45:005.50 °C1016.90 hPa92.00 %4.30 °C 
01:44:005.30 °C1016.80 hPa92.00 %6.48 km/hONO3.90 °C4.10 °C 
01:30:005.50 °C1016.70 hPa91.00 %4.20 °C 
01:29:005.40 °C1016.90 hPa92.00 %6.84 km/hOSO3.90 °C4.20 °C 
01:15:005.50 °C1016.80 hPa91.00 %4.20 °C 
01:14:005.50 °C1016.90 hPa92.00 %2.16 km/hOSO5.50 °C4.30 °C 
01:00:005.60 °C1017.00 hPa91.00 %7.20 km/hO4.10 °C4.20 °C 
00:59:005.50 °C1016.90 hPa92.00 %4.30 °C 
00:45:005.60 °C1016.90 hPa91.00 %4.20 °C 
00:44:005.50 °C1016.90 hPa92.00 %4.30 °C 
00:30:005.90 °C1017.20 hPa91.00 %15.12 km/hSO2.80 °C4.50 °C 
00:29:005.50 °C1016.70 hPa91.00 %4.20 °C 
00:15:006.00 °C1016.90 hPa91.00 %10.08 km/hONO3.80 °C4.60 °C 
00:14:005.50 °C1016.80 hPa91.00 %4.20 °C 
00:00:006.20 °C1016.90 hPa91.00 %2.16 km/hN6.20 °C4.80 °C 

Permanenter Link zu dieser Seite: Wetter im Erzgebirge am 27.10.2015
Performance-Info: Die Erstellung der Seite / Statistik(en) / Tabelle(n) erforderte 5 Datenbankserver-Abfrage(n) und dauerte 70 Millisekunden. (Dieser Messwert ist von der Gesamt-Auslastung des Servers abhängig.)
Erzgebirge - Wetter | Erzgebirge - Wetter (Mobilgeräte) | Komplette Klimadatenbank